Alstead, New Hampshire
Current Conditions -  °F | °C
As of 8:54 PM on Sunday 21 Dec 2014 (Local Time) from KVSF Reporting Station
Haze Haze  
Wind Chill: 29°   Ceiling: 2700
Heat Index: 29°   Visibility: 4mi
Dew Point: 27°   Wind: 0mph
Humidity: 92%   Direction: NA
Pressure: 30.35"   Gusts: NA
Location:  43.15°N, 72.36°W
Report Text: KVSF 220154Z AUTO 00000KT 4SM BR OVC027 M02/M03 A3035 RMK AO2 SLP287 T10171028 TSNO
Loading
Personal Weather Stations






























Interactive Weather Map New forecast layout! Learn more

10-Day Weather Forecast

Advertisements
Track Severe Weather on mobile